sensor_id;sensor_type;location;lat;lon;timestamp;temperature;humidity
19847;DHT22;10084;50.518;8.588;2023-06-19T00:02:15;21.90;64.10
19847;DHT22;10084;50.518;8.588;2023-06-19T00:04:41;21.80;64.10
19847;DHT22;10084;50.518;8.588;2023-06-19T00:07:07;21.70;64.50
19847;DHT22;10084;50.518;8.588;2023-06-19T00:09:33;21.60;64.70
19847;DHT22;10084;50.518;8.588;2023-06-19T00:11:58;21.50;65.00
19847;DHT22;10084;50.518;8.588;2023-06-19T00:14:25;21.50;65.20
19847;DHT22;10084;50.518;8.588;2023-06-19T00:16:51;21.40;65.40
19847;DHT22;10084;50.518;8.588;2023-06-19T00:19:17;21.40;65.60
19847;DHT22;10084;50.518;8.588;2023-06-19T00:21:43;21.40;65.70
19847;DHT22;10084;50.518;8.588;2023-06-19T00:24:10;21.40;65.80
19847;DHT22;10084;50.518;8.588;2023-06-19T00:26:36;21.40;65.90
19847;DHT22;10084;50.518;8.588;2023-06-19T00:29:02;21.30;66.00
19847;DHT22;10084;50.518;8.588;2023-06-19T00:31:28;21.30;66.10
19847;DHT22;10084;50.518;8.588;2023-06-19T00:33:54;21.20;66.20
19847;DHT22;10084;50.518;8.588;2023-06-19T00:36:20;21.10;66.40
19847;DHT22;10084;50.518;8.588;2023-06-19T00:38:47;21.00;66.60
19847;DHT22;10084;50.518;8.588;2023-06-19T00:41:14;20.90;66.70
19847;DHT22;10084;50.518;8.588;2023-06-19T00:43:42;20.70;66.90
19847;DHT22;10084;50.518;8.588;2023-06-19T00:46:08;20.60;67.20
19847;DHT22;10084;50.518;8.588;2023-06-19T00:48:34;20.50;67.50
19847;DHT22;10084;50.518;8.588;2023-06-19T00:51:01;20.40;67.70
19847;DHT22;10084;50.518;8.588;2023-06-19T00:53:26;20.30;67.90
19847;DHT22;10084;50.518;8.588;2023-06-19T00:55:53;20.30;68.10
19847;DHT22;10084;50.518;8.588;2023-06-19T00:58:23;20.30;68.30
19847;DHT22;10084;50.518;8.588;2023-06-19T01:00:49;20.30;68.40
19847;DHT22;10084;50.518;8.588;2023-06-19T01:03:16;20.30;68.40
19847;DHT22;10084;50.518;8.588;2023-06-19T01:05:43;20.30;68.40
19847;DHT22;10084;50.518;8.588;2023-06-19T01:08:15;20.30;68.30
19847;DHT22;10084;50.518;8.588;2023-06-19T01:10:49;20.40;68.40
19847;DHT22;10084;50.518;8.588;2023-06-19T01:13:34;20.40;68.40
19847;DHT22;10084;50.518;8.588;2023-06-19T01:16:03;20.40;68.60
19847;DHT22;10084;50.518;8.588;2023-06-19T01:18:30;20.50;68.50
19847;DHT22;10084;50.518;8.588;2023-06-19T01:21:08;20.50;68.50
19847;DHT22;10084;50.518;8.588;2023-06-19T01:23:35;20.50;68.50
19847;DHT22;10084;50.518;8.588;2023-06-19T01:26:00;20.50;68.60
19847;DHT22;10084;50.518;8.588;2023-06-19T01:28:26;20.50;68.70
19847;DHT22;10084;50.518;8.588;2023-06-19T01:30:55;20.50;68.80
19847;DHT22;10084;50.518;8.588;2023-06-19T01:33:27;20.50;68.90
19847;DHT22;10084;50.518;8.588;2023-06-19T01:35:55;20.50;68.90
19847;DHT22;10084;50.518;8.588;2023-06-19T01:38:23;20.40;68.70
19847;DHT22;10084;50.518;8.588;2023-06-19T01:40:53;20.40;68.70
19847;DHT22;10084;50.518;8.588;2023-06-19T01:43:20;20.40;68.70
19847;DHT22;10084;50.518;8.588;2023-06-19T01:45:47;20.40;68.80
19847;DHT22;10084;50.518;8.588;2023-06-19T01:48:14;20.30;68.70
19847;DHT22;10084;50.518;8.588;2023-06-19T01:50:41;20.30;68.70
19847;DHT22;10084;50.518;8.588;2023-06-19T01:53:11;20.30;68.80
19847;DHT22;10084;50.518;8.588;2023-06-19T01:55:37;20.30;68.90
19847;DHT22;10084;50.518;8.588;2023-06-19T01:58:03;20.20;68.90
19847;DHT22;10084;50.518;8.588;2023-06-19T02:00:29;20.20;69.00
19847;DHT22;10084;50.518;8.588;2023-06-19T02:02:57;20.20;69.00
19847;DHT22;10084;50.518;8.588;2023-06-19T02:05:23;20.20;69.10
19847;DHT22;10084;50.518;8.588;2023-06-19T02:07:48;20.10;69.00
19847;DHT22;10084;50.518;8.588;2023-06-19T02:10:15;20.10;69.10
19847;DHT22;10084;50.518;8.588;2023-06-19T02:12:41;20.10;69.20
19847;DHT22;10084;50.518;8.588;2023-06-19T02:15:07;20.10;69.30
19847;DHT22;10084;50.518;8.588;2023-06-19T02:17:33;20.10;69.20
19847;DHT22;10084;50.518;8.588;2023-06-19T02:19:58;20.10;69.20
19847;DHT22;10084;50.518;8.588;2023-06-19T02:22:24;20.10;69.20
19847;DHT22;10084;50.518;8.588;2023-06-19T02:24:50;20.20;69.20
19847;DHT22;10084;50.518;8.588;2023-06-19T02:27:16;20.20;69.20
19847;DHT22;10084;50.518;8.588;2023-06-19T02:29:42;20.20;69.80
19847;DHT22;10084;50.518;8.588;2023-06-19T02:32:07;20.20;69.10
19847;DHT22;10084;50.518;8.588;2023-06-19T02:34:33;20.20;69.00
19847;DHT22;10084;50.518;8.588;2023-06-19T02:36:59;20.20;69.00
19847;DHT22;10084;50.518;8.588;2023-06-19T02:39:25;20.30;69.10
19847;DHT22;10084;50.518;8.588;2023-06-19T02:41:51;20.20;68.90
19847;DHT22;10084;50.518;8.588;2023-06-19T02:44:16;20.30;69.00
19847;DHT22;10084;50.518;8.588;2023-06-19T02:46:43;20.20;69.00
19847;DHT22;10084;50.518;8.588;2023-06-19T02:49:08;20.20;69.10
19847;DHT22;10084;50.518;8.588;2023-06-19T02:51:34;20.20;69.10
19847;DHT22;10084;50.518;8.588;2023-06-19T02:54:00;20.20;69.10
19847;DHT22;10084;50.518;8.588;2023-06-19T02:56:26;20.20;69.10
19847;DHT22;10084;50.518;8.588;2023-06-19T02:58:53;20.30;69.10
19847;DHT22;10084;50.518;8.588;2023-06-19T03:01:18;20.30;69.10
19847;DHT22;10084;50.518;8.588;2023-06-19T03:03:44;20.40;69.00
19847;DHT22;10084;50.518;8.588;2023-06-19T03:06:12;20.40;68.90
19847;DHT22;10084;50.518;8.588;2023-06-19T03:08:39;20.40;68.90
19847;DHT22;10084;50.518;8.588;2023-06-19T03:11:05;20.40;68.90
19847;DHT22;10084;50.518;8.588;2023-06-19T03:13:43;20.40;68.90
19847;DHT22;10084;50.518;8.588;2023-06-19T03:16:08;20.40;68.90
19847;DHT22;10084;50.518;8.588;2023-06-19T03:18:34;20.40;68.90
19847;DHT22;10084;50.518;8.588;2023-06-19T03:21:00;20.40;69.00
19847;DHT22;10084;50.518;8.588;2023-06-19T03:23:26;20.40;69.00
19847;DHT22;10084;50.518;8.588;2023-06-19T03:25:51;20.40;69.00
19847;DHT22;10084;50.518;8.588;2023-06-19T03:28:17;20.40;68.90
19847;DHT22;10084;50.518;8.588;2023-06-19T03:30:43;20.50;68.90
19847;DHT22;10084;50.518;8.588;2023-06-19T03:33:09;20.50;68.80
19847;DHT22;10084;50.518;8.588;2023-06-19T03:35:39;20.50;68.70
19847;DHT22;10084;50.518;8.588;2023-06-19T03:38:07;20.60;68.70
19847;DHT22;10084;50.518;8.588;2023-06-19T03:40:33;20.60;68.60
19847;DHT22;10084;50.518;8.588;2023-06-19T03:43:05;20.60;68.50
19847;DHT22;10084;50.518;8.588;2023-06-19T03:45:31;20.70;68.40
19847;DHT22;10084;50.518;8.588;2023-06-19T03:47:57;20.70;68.30
19847;DHT22;10084;50.518;8.588;2023-06-19T03:50:23;20.70;68.20
19847;DHT22;10084;50.518;8.588;2023-06-19T03:52:48;20.80;68.20
19847;DHT22;10084;50.518;8.588;2023-06-19T03:55:14;20.80;68.10
19847;DHT22;10084;50.518;8.588;2023-06-19T03:57:40;20.80;68.10
19847;DHT22;10084;50.518;8.588;2023-06-19T04:00:06;20.90;68.10
19847;DHT22;10084;50.518;8.588;2023-06-19T04:02:38;20.90;68.00
19847;DHT22;10084;50.518;8.588;2023-06-19T04:05:04;21.00;68.00
19847;DHT22;10084;50.518;8.588;2023-06-19T04:07:30;21.00;67.90
19847;DHT22;10084;50.518;8.588;2023-06-19T04:09:57;21.00;67.80
19847;DHT22;10084;50.518;8.588;2023-06-19T04:12:23;21.10;67.80
19847;DHT22;10084;50.518;8.588;2023-06-19T04:14:49;21.10;67.80
19847;DHT22;10084;50.518;8.588;2023-06-19T04:17:14;21.10;67.60
19847;DHT22;10084;50.518;8.588;2023-06-19T04:19:41;21.10;67.60
19847;DHT22;10084;50.518;8.588;2023-06-19T04:22:07;21.10;67.70
19847;DHT22;10084;50.518;8.588;2023-06-19T04:24:33;21.20;67.80
19847;DHT22;10084;50.518;8.588;2023-06-19T04:26:59;21.20;67.80
19847;DHT22;10084;50.518;8.588;2023-06-19T04:29:25;21.20;67.80
19847;DHT22;10084;50.518;8.588;2023-06-19T04:31:50;21.20;67.80
19847;DHT22;10084;50.518;8.588;2023-06-19T04:34:17;21.20;67.70
19847;DHT22;10084;50.518;8.588;2023-06-19T04:36:47;21.20;67.70
19847;DHT22;10084;50.518;8.588;2023-06-19T04:39:13;21.30;67.70
19847;DHT22;10084;50.518;8.588;2023-06-19T04:41:39;21.30;67.70
19847;DHT22;10084;50.518;8.588;2023-06-19T04:44:05;21.30;67.80
19847;DHT22;10084;50.518;8.588;2023-06-19T04:46:31;21.40;68.00
19847;DHT22;10084;50.518;8.588;2023-06-19T04:48:57;21.40;68.10
19847;DHT22;10084;50.518;8.588;2023-06-19T04:51:23;21.40;68.10
19847;DHT22;10084;50.518;8.588;2023-06-19T04:53:48;21.40;68.10
19847;DHT22;10084;50.518;8.588;2023-06-19T04:56:14;21.50;68.10
19847;DHT22;10084;50.518;8.588;2023-06-19T04:58:41;21.40;68.10
19847;DHT22;10084;50.518;8.588;2023-06-19T05:01:12;21.40;68.10
19847;DHT22;10084;50.518;8.588;2023-06-19T05:03:39;21.50;68.00
19847;DHT22;10084;50.518;8.588;2023-06-19T05:06:04;21.50;67.90
19847;DHT22;10084;50.518;8.588;2023-06-19T05:08:30;21.60;67.70
19847;DHT22;10084;50.518;8.588;2023-06-19T05:10:56;21.70;67.60
19847;DHT22;10084;50.518;8.588;2023-06-19T05:13:23;21.80;67.40
19847;DHT22;10084;50.518;8.588;2023-06-19T05:15:49;21.90;67.30
19847;DHT22;10084;50.518;8.588;2023-06-19T05:18:16;22.10;67.00
19847;DHT22;10084;50.518;8.588;2023-06-19T05:20:42;22.20;66.90
19847;DHT22;10084;50.518;8.588;2023-06-19T05:23:07;22.30;67.70
19847;DHT22;10084;50.518;8.588;2023-06-19T05:25:33;22.50;67.10
19847;DHT22;10084;50.518;8.588;2023-06-19T05:27:59;22.70;66.90
19847;DHT22;10084;50.518;8.588;2023-06-19T05:30:25;22.80;66.80
19847;DHT22;10084;50.518;8.588;2023-06-19T05:32:51;23.00;66.80
19847;DHT22;10084;50.518;8.588;2023-06-19T05:35:16;23.10;66.60
19847;DHT22;10084;50.518;8.588;2023-06-19T05:37:42;23.30;66.60
19847;DHT22;10084;50.518;8.588;2023-06-19T05:40:11;23.40;66.40
19847;DHT22;10084;50.518;8.588;2023-06-19T05:42:37;23.60;66.30
19847;DHT22;10084;50.518;8.588;2023-06-19T05:45:03;23.80;66.20
19847;DHT22;10084;50.518;8.588;2023-06-19T05:47:29;23.90;66.10
19847;DHT22;10084;50.518;8.588;2023-06-19T05:49:59;24.10;66.40
19847;DHT22;10084;50.518;8.588;2023-06-19T05:52:25;24.40;66.40
19847;DHT22;10084;50.518;8.588;2023-06-19T05:54:50;24.60;66.20
19847;DHT22;10084;50.518;8.588;2023-06-19T05:57:16;24.90;66.20
19847;DHT22;10084;50.518;8.588;2023-06-19T05:59:47;25.30;66.20
19847;DHT22;10084;50.518;8.588;2023-06-19T06:02:13;25.90;66.10
19847;DHT22;10084;50.518;8.588;2023-06-19T06:04:39;26.40;65.40
19847;DHT22;10084;50.518;8.588;2023-06-19T06:07:05;26.90;64.90
19847;DHT22;10084;50.518;8.588;2023-06-19T06:09:31;27.30;64.10
19847;DHT22;10084;50.518;8.588;2023-06-19T06:11:58;27.70;63.20
19847;DHT22;10084;50.518;8.588;2023-06-19T06:14:24;28.00;62.10
19847;DHT22;10084;50.518;8.588;2023-06-19T06:16:50;28.30;61.20
19847;DHT22;10084;50.518;8.588;2023-06-19T06:19:16;28.50;60.60
19847;DHT22;10084;50.518;8.588;2023-06-19T06:21:41;28.80;60.30
19847;DHT22;10084;50.518;8.588;2023-06-19T06:24:07;29.20;59.60
19847;DHT22;10084;50.518;8.588;2023-06-19T06:26:33;29.50;58.60
19847;DHT22;10084;50.518;8.588;2023-06-19T06:28:58;29.90;58.00
19847;DHT22;10084;50.518;8.588;2023-06-19T06:31:24;30.20;57.40
19847;DHT22;10084;50.518;8.588;2023-06-19T06:33:50;30.50;56.60
19847;DHT22;10084;50.518;8.588;2023-06-19T06:36:16;30.70;55.90
19847;DHT22;10084;50.518;8.588;2023-06-19T06:38:42;30.80;55.20
19847;DHT22;10084;50.518;8.588;2023-06-19T06:41:07;30.80;54.60
19847;DHT22;10084;50.518;8.588;2023-06-19T06:43:34;30.80;54.00
19847;DHT22;10084;50.518;8.588;2023-06-19T06:46:00;30.80;53.40
19847;DHT22;10084;50.518;8.588;2023-06-19T06:48:25;30.70;52.70
19847;DHT22;10084;50.518;8.588;2023-06-19T06:50:51;30.60;52.20
19847;DHT22;10084;50.518;8.588;2023-06-19T06:53:25;30.50;51.70
19847;DHT22;10084;50.518;8.588;2023-06-19T06:55:51;30.40;51.50
19847;DHT22;10084;50.518;8.588;2023-06-19T06:58:17;30.30;51.10
19847;DHT22;10084;50.518;8.588;2023-06-19T07:00:44;30.10;50.70
19847;DHT22;10084;50.518;8.588;2023-06-19T07:03:10;30.00;50.40
19847;DHT22;10084;50.518;8.588;2023-06-19T07:05:35;29.80;50.20
19847;DHT22;10084;50.518;8.588;2023-06-19T07:08:01;29.70;50.40
19847;DHT22;10084;50.518;8.588;2023-06-19T07:10:27;29.50;50.50
19847;DHT22;10084;50.518;8.588;2023-06-19T07:12:53;29.20;50.50
19847;DHT22;10084;50.518;8.588;2023-06-19T07:15:18;29.00;50.60
19847;DHT22;10084;50.518;8.588;2023-06-19T07:17:45;28.80;50.80
19847;DHT22;10084;50.518;8.588;2023-06-19T07:20:11;28.70;51.00
19847;DHT22;10084;50.518;8.588;2023-06-19T07:22:37;28.60;51.20
19847;DHT22;10084;50.518;8.588;2023-06-19T07:25:03;28.70;51.30
19847;DHT22;10084;50.518;8.588;2023-06-19T07:27:29;28.70;51.30
19847;DHT22;10084;50.518;8.588;2023-06-19T07:29:55;28.70;51.20
19847;DHT22;10084;50.518;8.588;2023-06-19T07:32:21;28.50;51.20
19847;DHT22;10084;50.518;8.588;2023-06-19T07:34:47;28.40;51.30
19847;DHT22;10084;50.518;8.588;2023-06-19T07:37:12;28.20;51.40
19847;DHT22;10084;50.518;8.588;2023-06-19T07:39:46;28.00;51.60
19847;DHT22;10084;50.518;8.588;2023-06-19T07:42:13;27.80;51.80
19847;DHT22;10084;50.518;8.588;2023-06-19T07:44:40;27.60;52.10
19847;DHT22;10084;50.518;8.588;2023-06-19T07:47:06;27.40;52.30
19847;DHT22;10084;50.518;8.588;2023-06-19T07:49:32;27.30;52.40
19847;DHT22;10084;50.518;8.588;2023-06-19T07:51:58;27.30;52.80
19847;DHT22;10084;50.518;8.588;2023-06-19T07:54:24;27.20;53.00
19847;DHT22;10084;50.518;8.588;2023-06-19T07:56:49;27.20;53.10
19847;DHT22;10084;50.518;8.588;2023-06-19T07:59:15;27.30;53.20
19847;DHT22;10084;50.518;8.588;2023-06-19T08:01:42;27.30;53.20
19847;DHT22;10084;50.518;8.588;2023-06-19T08:04:08;27.30;53.20
19847;DHT22;10084;50.518;8.588;2023-06-19T08:06:34;27.30;53.30
19847;DHT22;10084;50.518;8.588;2023-06-19T08:09:00;27.30;53.30
19847;DHT22;10084;50.518;8.588;2023-06-19T08:11:25;27.30;53.30
19847;DHT22;10084;50.518;8.588;2023-06-19T08:13:51;27.20;53.30
19847;DHT22;10084;50.518;8.588;2023-06-19T08:16:17;27.10;53.30
19847;DHT22;10084;50.518;8.588;2023-06-19T08:18:44;27.10;53.50
19847;DHT22;10084;50.518;8.588;2023-06-19T08:21:10;27.00;53.50
19847;DHT22;10084;50.518;8.588;2023-06-19T08:23:35;26.90;53.70
19847;DHT22;10084;50.518;8.588;2023-06-19T08:26:03;26.90;53.90
19847;DHT22;10084;50.518;8.588;2023-06-19T08:28:30;27.00;54.00
19847;DHT22;10084;50.518;8.588;2023-06-19T08:30:56;27.00;54.00
19847;DHT22;10084;50.518;8.588;2023-06-19T08:35:48;27.20;53.60
19847;DHT22;10084;50.518;8.588;2023-06-19T08:38:14;27.40;54.10
19847;DHT22;10084;50.518;8.588;2023-06-19T08:40:41;27.60;54.00
19847;DHT22;10084;50.518;8.588;2023-06-19T08:43:08;27.80;53.90
19847;DHT22;10084;50.518;8.588;2023-06-19T08:45:34;28.00;53.60
19847;DHT22;10084;50.518;8.588;2023-06-19T08:48:03;28.20;53.40
19847;DHT22;10084;50.518;8.588;2023-06-19T08:50:35;28.40;53.20
19847;DHT22;10084;50.518;8.588;2023-06-19T08:53:01;28.60;53.00
19847;DHT22;10084;50.518;8.588;2023-06-19T08:55:27;28.70;52.60
19847;DHT22;10084;50.518;8.588;2023-06-19T08:57:52;28.80;52.30
19847;DHT22;10084;50.518;8.588;2023-06-19T09:00:29;28.90;52.30
19847;DHT22;10084;50.518;8.588;2023-06-19T09:03:01;28.80;52.00
19847;DHT22;10084;50.518;8.588;2023-06-19T09:05:27;28.70;52.00
19847;DHT22;10084;50.518;8.588;2023-06-19T09:07:55;28.60;52.10
19847;DHT22;10084;50.518;8.588;2023-06-19T09:10:21;28.50;52.10
19847;DHT22;10084;50.518;8.588;2023-06-19T09:13:18;28.50;52.10
19847;DHT22;10084;50.518;8.588;2023-06-19T09:15:44;28.50;52.20
19847;DHT22;10084;50.518;8.588;2023-06-19T09:18:10;28.50;52.30
19847;DHT22;10084;50.518;8.588;2023-06-19T09:20:41;28.60;52.20
19847;DHT22;10084;50.518;8.588;2023-06-19T09:23:11;28.70;52.10
19847;DHT22;10084;50.518;8.588;2023-06-19T09:28:23;29.00;51.90
19847;DHT22;10084;50.518;8.588;2023-06-19T09:30:57;29.00;51.60
19847;DHT22;10084;50.518;8.588;2023-06-19T09:33:28;29.10;51.40
19847;DHT22;10084;50.518;8.588;2023-06-19T09:35:55;29.10;51.20
19847;DHT22;10084;50.518;8.588;2023-06-19T09:38:24;29.10;51.10
19847;DHT22;10084;50.518;8.588;2023-06-19T09:40:52;29.20;51.00
19847;DHT22;10084;50.518;8.588;2023-06-19T09:43:39;29.20;51.00
19847;DHT22;10084;50.518;8.588;2023-06-19T09:46:06;29.20;50.80
19847;DHT22;10084;50.518;8.588;2023-06-19T09:48:34;29.20;50.70
19847;DHT22;10084;50.518;8.588;2023-06-19T09:51:20;29.20;50.60
19847;DHT22;10084;50.518;8.588;2023-06-19T09:53:51;29.20;50.50
19847;DHT22;10084;50.518;8.588;2023-06-19T09:56:17;29.30;50.50
19847;DHT22;10084;50.518;8.588;2023-06-19T09:58:49;29.40;50.40
19847;DHT22;10084;50.518;8.588;2023-06-19T10:01:16;29.60;50.40
19847;DHT22;10084;50.518;8.588;2023-06-19T10:03:45;29.80;50.20
19847;DHT22;10084;50.518;8.588;2023-06-19T10:06:15;29.70;49.90
19847;DHT22;10084;50.518;8.588;2023-06-19T10:08:43;29.70;49.90
19847;DHT22;10084;50.518;8.588;2023-06-19T10:11:10;29.70;50.00
19847;DHT22;10084;50.518;8.588;2023-06-19T10:13:37;29.80;49.90
19847;DHT22;10084;50.518;8.588;2023-06-19T10:16:07;29.70;49.70
19847;DHT22;10084;50.518;8.588;2023-06-19T10:18:44;29.70;49.70
19847;DHT22;10084;50.518;8.588;2023-06-19T10:21:21;29.60;49.80
19847;DHT22;10084;50.518;8.588;2023-06-19T10:23:57;29.70;49.80
19847;DHT22;10084;50.518;8.588;2023-06-19T10:26:31;29.90;50.00
19847;DHT22;10084;50.518;8.588;2023-06-19T10:28:57;30.10;49.90
19847;DHT22;10084;50.518;8.588;2023-06-19T10:31:23;30.30;49.70
19847;DHT22;10084;50.518;8.588;2023-06-19T10:33:49;30.30;49.40
19847;DHT22;10084;50.518;8.588;2023-06-19T10:36:15;30.30;49.30
19847;DHT22;10084;50.518;8.588;2023-06-19T10:38:42;30.20;49.10
19847;DHT22;10084;50.518;8.588;2023-06-19T10:41:18;30.10;49.00
19847;DHT22;10084;50.518;8.588;2023-06-19T10:43:53;30.00;48.90
19847;DHT22;10084;50.518;8.588;2023-06-19T10:46:21;29.90;48.80
19847;DHT22;10084;50.518;8.588;2023-06-19T10:48:48;29.80;48.90
19847;DHT22;10084;50.518;8.588;2023-06-19T10:51:19;29.90;49.00
19847;DHT22;10084;50.518;8.588;2023-06-19T10:53:44;30.00;48.90
19847;DHT22;10084;50.518;8.588;2023-06-19T10:56:10;30.30;48.80
19847;DHT22;10084;50.518;8.588;2023-06-19T10:58:36;30.60;48.70
19847;DHT22;10084;50.518;8.588;2023-06-19T11:01:01;30.80;48.30
19847;DHT22;10084;50.518;8.588;2023-06-19T11:03:28;31.10;48.00
19847;DHT22;10084;50.518;8.588;2023-06-19T11:05:55;31.40;47.80
19847;DHT22;10084;50.518;8.588;2023-06-19T11:08:22;31.50;47.40
19847;DHT22;10084;50.518;8.588;2023-06-19T11:10:48;31.60;47.00
19847;DHT22;10084;50.518;8.588;2023-06-19T11:13:16;31.70;46.80
19847;DHT22;10084;50.518;8.588;2023-06-19T11:15:43;31.80;46.60
19847;DHT22;10084;50.518;8.588;2023-06-19T11:18:09;31.80;46.30
19847;DHT22;10084;50.518;8.588;2023-06-19T11:20:48;31.70;46.10
19847;DHT22;10084;50.518;8.588;2023-06-19T11:23:16;31.60;45.80
19847;DHT22;10084;50.518;8.588;2023-06-19T11:25:43;31.50;46.00
19847;DHT22;10084;50.518;8.588;2023-06-19T11:28:13;31.40;45.90
19847;DHT22;10084;50.518;8.588;2023-06-19T11:30:39;31.40;45.90
19847;DHT22;10084;50.518;8.588;2023-06-19T11:33:19;31.50;46.10
19847;DHT22;10084;50.518;8.588;2023-06-19T11:35:53;31.60;45.90
19847;DHT22;10084;50.518;8.588;2023-06-19T11:38:24;31.80;45.80
19847;DHT22;10084;50.518;8.588;2023-06-19T11:40:50;32.00;45.50
19847;DHT22;10084;50.518;8.588;2023-06-19T11:43:30;32.10;45.10
19847;DHT22;10084;50.518;8.588;2023-06-19T11:46:05;32.20;44.60
19847;DHT22;10084;50.518;8.588;2023-06-19T11:48:31;32.20;44.40
19847;DHT22;10084;50.518;8.588;2023-06-19T11:50:57;32.20;44.40
19847;DHT22;10084;50.518;8.588;2023-06-19T11:53:24;32.10;44.20
19847;DHT22;10084;50.518;8.588;2023-06-19T11:55:51;32.00;44.20
19847;DHT22;10084;50.518;8.588;2023-06-19T11:58:17;31.80;44.10
19847;DHT22;10084;50.518;8.588;2023-06-19T12:00:45;31.70;44.20
19847;DHT22;10084;50.518;8.588;2023-06-19T12:03:10;31.60;44.30
19847;DHT22;10084;50.518;8.588;2023-06-19T12:05:37;31.60;44.40
19847;DHT22;10084;50.518;8.588;2023-06-19T12:08:03;31.50;44.30
19847;DHT22;10084;50.518;8.588;2023-06-19T12:10:30;31.50;44.20
19847;DHT22;10084;50.518;8.588;2023-06-19T12:12:56;31.40;44.10
19847;DHT22;10084;50.518;8.588;2023-06-19T12:15:22;31.40;44.00
19847;DHT22;10084;50.518;8.588;2023-06-19T12:17:48;31.40;44.00
19847;DHT22;10084;50.518;8.588;2023-06-19T12:20:14;31.30;43.70
19847;DHT22;10084;50.518;8.588;2023-06-19T12:22:40;31.20;43.70
19847;DHT22;10084;50.518;8.588;2023-06-19T12:25:07;31.20;43.70
19847;DHT22;10084;50.518;8.588;2023-06-19T12:27:32;31.10;43.60
19847;DHT22;10084;50.518;8.588;2023-06-19T12:29:58;31.10;43.50
19847;DHT22;10084;50.518;8.588;2023-06-19T12:32:24;31.10;43.50
19847;DHT22;10084;50.518;8.588;2023-06-19T12:34:50;31.10;43.50
19847;DHT22;10084;50.518;8.588;2023-06-19T12:37:20;31.20;43.60
19847;DHT22;10084;50.518;8.588;2023-06-19T12:39:49;31.20;43.50
19847;DHT22;10084;50.518;8.588;2023-06-19T12:42:15;31.30;43.60
19847;DHT22;10084;50.518;8.588;2023-06-19T12:44:41;31.30;43.60
19847;DHT22;10084;50.518;8.588;2023-06-19T12:47:08;31.30;43.60
19847;DHT22;10084;50.518;8.588;2023-06-19T12:49:34;31.30;43.60
19847;DHT22;10084;50.518;8.588;2023-06-19T12:52:00;31.30;43.60
19847;DHT22;10084;50.518;8.588;2023-06-19T12:54:26;31.30;43.40
19847;DHT22;10084;50.518;8.588;2023-06-19T12:56:52;31.40;43.50
19847;DHT22;10084;50.518;8.588;2023-06-19T12:59:18;31.40;43.40
19847;DHT22;10084;50.518;8.588;2023-06-19T13:01:44;31.40;43.30
19847;DHT22;10084;50.518;8.588;2023-06-19T13:04:11;31.40;43.10
19847;DHT22;10084;50.518;8.588;2023-06-19T13:06:37;31.40;43.10
19847;DHT22;10084;50.518;8.588;2023-06-19T13:09:04;31.40;43.20
19847;DHT22;10084;50.518;8.588;2023-06-19T13:11:30;31.30;43.20
19847;DHT22;10084;50.518;8.588;2023-06-19T13:13:56;31.30;43.20
19847;DHT22;10084;50.518;8.588;2023-06-19T13:16:22;31.30;43.30
19847;DHT22;10084;50.518;8.588;2023-06-19T13:18:51;31.30;43.10
19847;DHT22;10084;50.518;8.588;2023-06-19T13:21:16;31.10;42.90
19847;DHT22;10084;50.518;8.588;2023-06-19T13:23:42;31.00;42.90
19847;DHT22;10084;50.518;8.588;2023-06-19T13:26:08;30.90;43.00
19847;DHT22;10084;50.518;8.588;2023-06-19T13:28:34;30.80;43.10
19847;DHT22;10084;50.518;8.588;2023-06-19T13:30:59;30.80;43.30
19847;DHT22;10084;50.518;8.588;2023-06-19T13:33:25;30.70;43.30
19847;DHT22;10084;50.518;8.588;2023-06-19T13:35:51;30.70;43.40
19847;DHT22;10084;50.518;8.588;2023-06-19T13:38:18;30.70;43.40
19847;DHT22;10084;50.518;8.588;2023-06-19T13:40:44;30.70;43.40
19847;DHT22;10084;50.518;8.588;2023-06-19T13:43:10;30.70;43.40
19847;DHT22;10084;50.518;8.588;2023-06-19T13:45:35;30.80;43.50
19847;DHT22;10084;50.518;8.588;2023-06-19T13:48:04;30.80;43.40
19847;DHT22;10084;50.518;8.588;2023-06-19T13:50:30;30.80;43.40
19847;DHT22;10084;50.518;8.588;2023-06-19T13:52:57;30.80;43.30
19847;DHT22;10084;50.518;8.588;2023-06-19T13:55:23;30.80;43.20
19847;DHT22;10084;50.518;8.588;2023-06-19T13:57:49;30.80;43.30
19847;DHT22;10084;50.518;8.588;2023-06-19T14:00:15;30.90;43.20
19847;DHT22;10084;50.518;8.588;2023-06-19T14:02:41;30.90;43.20
19847;DHT22;10084;50.518;8.588;2023-06-19T14:05:08;30.80;43.20
19847;DHT22;10084;50.518;8.588;2023-06-19T14:07:34;30.80;43.30
19847;DHT22;10084;50.518;8.588;2023-06-19T14:10:02;30.80;43.20
19847;DHT22;10084;50.518;8.588;2023-06-19T14:12:28;30.90;43.30
19847;DHT22;10084;50.518;8.588;2023-06-19T14:14:54;30.90;43.20
19847;DHT22;10084;50.518;8.588;2023-06-19T14:17:22;30.90;43.10
19847;DHT22;10084;50.518;8.588;2023-06-19T14:19:48;30.90;43.10
19847;DHT22;10084;50.518;8.588;2023-06-19T14:22:14;30.90;43.10
19847;DHT22;10084;50.518;8.588;2023-06-19T14:24:40;30.90;43.00
19847;DHT22;10084;50.518;8.588;2023-06-19T14:27:06;30.90;43.00
19847;DHT22;10084;50.518;8.588;2023-06-19T14:29:31;30.90;42.90
19847;DHT22;10084;50.518;8.588;2023-06-19T14:31:57;30.90;42.90
19847;DHT22;10084;50.518;8.588;2023-06-19T14:34:23;30.90;42.80
19847;DHT22;10084;50.518;8.588;2023-06-19T14:36:48;30.90;42.90
19847;DHT22;10084;50.518;8.588;2023-06-19T14:39:14;30.90;42.80
19847;DHT22;10084;50.518;8.588;2023-06-19T14:41:40;30.90;42.80
19847;DHT22;10084;50.518;8.588;2023-06-19T14:44:05;30.80;42.60
19847;DHT22;10084;50.518;8.588;2023-06-19T14:46:31;30.80;42.70
19847;DHT22;10084;50.518;8.588;2023-06-19T14:48:58;30.70;42.80
19847;DHT22;10084;50.518;8.588;2023-06-19T14:51:25;30.70;42.80
19847;DHT22;10084;50.518;8.588;2023-06-19T14:53:51;30.60;42.60
19847;DHT22;10084;50.518;8.588;2023-06-19T14:56:17;30.60;42.70
19847;DHT22;10084;50.518;8.588;2023-06-19T14:58:43;30.60;42.60
19847;DHT22;10084;50.518;8.588;2023-06-19T15:01:09;30.50;42.40
19847;DHT22;10084;50.518;8.588;2023-06-19T15:03:35;30.50;42.40
19847;DHT22;10084;50.518;8.588;2023-06-19T15:06:01;30.50;42.30
19847;DHT22;10084;50.518;8.588;2023-06-19T15:08:26;30.50;42.10
19847;DHT22;10084;50.518;8.588;2023-06-19T15:10:52;30.40;42.00
19847;DHT22;10084;50.518;8.588;2023-06-19T15:13:18;30.40;41.90
19847;DHT22;10084;50.518;8.588;2023-06-19T15:15:44;30.40;41.80
19847;DHT22;10084;50.518;8.588;2023-06-19T15:18:11;30.30;41.60
19847;DHT22;10084;50.518;8.588;2023-06-19T15:20:36;30.30;41.40
19847;DHT22;10084;50.518;8.588;2023-06-19T15:23:05;30.20;41.30
19847;DHT22;10084;50.518;8.588;2023-06-19T15:25:31;30.20;41.30
19847;DHT22;10084;50.518;8.588;2023-06-19T15:27:56;30.10;41.20
19847;DHT22;10084;50.518;8.588;2023-06-19T15:30:22;30.10;41.20
19847;DHT22;10084;50.518;8.588;2023-06-19T15:32:48;30.00;41.30
19847;DHT22;10084;50.518;8.588;2023-06-19T15:35:15;30.00;41.40